Time;durP1;ratioP1;P1;durP2;ratioP2;P2;SDS_P1;SDS_P2;PMS_P1;PMS_P2;Temp;Humidity;BMP_temperature;BMP_pressure;BME280_temperature;BME280_humidity;BME280_pressure;Samples;Min_cycle;Max_cycle;Signal;HPM_P1;HPM_P2
2022/05/23 00:01:49;;;;;;;0.52;0.20;;;;;;;28.41;20.68;97883.09;5037202;28;20036;-77
2022/05/23 00:04:15;;;;;;;0.60;0.20;;;;;;;28.54;20.33;97876.03;5036064;28;20033;-77
2022/05/23 00:06:42;;;;;;;0.30;0.20;;;;;;;28.42;20.41;97884.66;5033849;28;20041;-77
2022/05/23 00:09:08;;;;;;;0.30;0.30;;;;;;;28.46;20.46;97882.47;5037363;28;20029;-77
2022/05/23 00:11:35;;;;;;;0.20;0.20;;;;;;;28.81;19.99;97874.50;5038495;28;20041;-77
2022/05/23 00:14:01;;;;;;;0.40;0.30;;;;;;;29.10;19.70;97878.41;5041103;28;20392;-77
2022/05/23 00:16:33;;;;;;;0.88;0.30;;;;;;;29.09;19.50;97884.53;5040071;28;20037;-77
2022/05/23 00:18:59;;;;;;;0.70;0.28;;;;;;;28.54;20.50;97890.16;5036789;28;20110;-77
2022/05/23 00:21:25;;;;;;;0.20;0.20;;;;;;;28.57;19.87;97888.44;5035172;28;20041;-77
2022/05/23 00:23:51;;;;;;;0.20;0.20;;;;;;;28.75;19.92;97886.44;5039720;28;20028;-77
2022/05/23 00:26:20;;;;;;;0.25;0.20;;;;;;;28.24;20.46;97884.63;5033210;28;20056;-77
2022/05/23 00:28:46;;;;;;;0.30;0.30;;;;;;;27.47;21.43;97885.72;5039667;28;20094;-77
2022/05/23 00:31:13;;;;;;;0.57;0.30;;;;;;;27.66;21.28;97890.97;5034484;28;20420;-77
2022/05/23 00:36:30;;;;;;;0.30;0.30;;;;;;;28.14;20.86;97895.13;5038590;28;21672;-77
2022/05/23 00:38:57;;;;;;;0.43;0.30;;;;;;;28.20;20.30;97898.88;5039966;28;20039;-77
2022/05/23 00:44:30;;;;;;;0.25;0.22;;;;;;;28.16;20.44;97898.25;5034752;28;20056;-77
2022/05/23 00:47:14;;;;;;;0.38;0.30;;;;;;;28.12;20.11;97899.66;5037311;28;20036;-77
2022/05/23 00:49:41;;;;;;;0.40;0.30;;;;;;;28.14;20.39;97897.94;5044802;28;20048;-77
2022/05/23 00:52:11;;;;;;;0.22;0.20;;;;;;;28.15;20.03;97899.50;5038189;28;20449;-77
2022/05/23 00:54:45;;;;;;;1.27;0.32;;;;;;;28.18;20.05;97907.03;5044321;28;20037;-77
2022/05/23 00:57:18;;;;;;;0.28;0.28;;;;;;;28.17;19.81;97907.53;5037512;28;20032;-77
2022/05/23 00:59:45;;;;;;;1.20;0.20;;;;;;;27.80;20.38;97912.97;5043106;28;20034;-77
2022/05/23 01:02:13;;;;;;;0.25;0.20;;;;;;;27.61;20.20;97908.50;5042920;28;20519;-77
2022/05/23 01:04:39;;;;;;;0.32;0.30;;;;;;;27.80;20.32;97907.34;5039189;28;20183;-77
2022/05/23 01:07:06;;;;;;;0.40;0.30;;;;;;;27.88;20.37;97914.28;5025018;28;20037;-77
2022/05/23 01:09:33;;;;;;;0.30;0.30;;;;;;;27.44;20.79;97912.81;5043523;28;20496;-77
2022/05/23 01:12:00;;;;;;;1.30;0.40;;;;;;;27.29;20.87;97914.53;5037242;28;20033;-77
2022/05/23 01:14:43;;;;;;;0.88;0.30;;;;;;;27.20;21.08;97912.47;5040738;28;20094;-77
2022/05/23 01:17:09;;;;;;;0.30;0.30;;;;;;;27.51;20.74;97915.34;5032967;28;20568;-77
2022/05/23 01:19:35;;;;;;;0.98;0.40;;;;;;;26.90;21.24;97918.81;5031336;28;20071;-76
2022/05/23 01:22:14;;;;;;;0.88;0.35;;;;;;;27.10;20.90;97912.84;5024521;28;20068;-76
2022/05/23 01:24:52;;;;;;;0.40;0.40;;;;;;;26.86;20.70;97915.34;5025833;28;20125;-76
2022/05/23 01:27:19;;;;;;;0.35;0.30;;;;;;;27.07;21.12;97920.19;5025073;28;20133;-76
2022/05/23 01:29:46;;;;;;;0.22;0.22;;;;;;;27.10;20.88;97916.44;5033860;28;20385;-76
2022/05/23 01:32:12;;;;;;;0.63;0.63;;;;;;;27.40;20.94;97915.75;5042273;28;20693;-76
2022/05/23 01:34:38;;;;;;;0.45;0.38;;;;;;;27.40;21.00;97915.75;5044194;28;20041;-76
2022/05/23 01:37:04;;;;;;;1.55;0.47;;;;;;;27.48;20.86;97916.28;5021940;28;20045;-77
2022/05/23 01:39:30;;;;;;;0.35;0.35;;;;;;;27.06;21.40;97921.44;5041126;28;20020;-77
2022/05/23 01:41:57;;;;;;;0.47;0.47;;;;;;;26.68;21.75;97915.91;5041249;28;20041;-76
2022/05/23 01:44:23;;;;;;;1.00;0.40;;;;;;;26.84;21.36;97922.69;5040457;28;20067;-77
2022/05/23 01:46:49;;;;;;;0.40;0.40;;;;;;;27.03;20.91;97916.72;5044077;28;20049;-77
2022/05/23 01:49:15;;;;;;;1.73;0.40;;;;;;;27.21;20.88;97908.38;5037674;28;20083;-77
2022/05/23 01:51:41;;;;;;;1.30;0.55;;;;;;;27.20;21.31;97914.50;5037802;28;20064;-77
2022/05/23 01:54:07;;;;;;;0.63;0.50;;;;;;;26.96;21.30;97902.09;5041424;28;20040;-76
2022/05/23 01:56:33;;;;;;;1.85;0.60;;;;;;;27.09;21.12;97903.63;5043435;28;20026;-76
2022/05/23 02:01:44;;;;;;;0.85;0.50;;;;;;;27.12;20.78;97899.09;5037402;28;20439;-76
2022/05/23 02:04:10;;;;;;;0.85;0.70;;;;;;;27.27;20.72;97897.31;5038346;28;20117;-76
2022/05/23 02:06:36;;;;;;;0.63;0.60;;;;;;;27.11;20.49;97906.75;5041628;28;20048;-76
2022/05/23 02:09:04;;;;;;;1.05;0.50;;;;;;;27.00;20.79;97909.16;5036759;28;20044;-78
2022/05/23 02:11:30;;;;;;;1.48;0.60;;;;;;;26.99;20.64;97915.28;5036801;28;20067;-79
2022/05/23 02:13:56;;;;;;;1.88;0.45;;;;;;;26.87;20.76;97908.44;5039530;28;20025;-79
2022/05/23 02:16:23;;;;;;;0.47;0.47;;;;;;;26.99;20.60;97910.44;5041259;28;20833;-79
2022/05/23 02:18:49;;;;;;;1.35;0.40;;;;;;;27.03;20.90;97913.91;5041864;28;20102;-79
2022/05/23 02:21:16;;;;;;;1.33;0.60;;;;;;;26.91;21.06;97911.16;5038137;28;20485;-79
2022/05/23 02:23:42;;;;;;;0.77;0.70;;;;;;;26.77;21.12;97906.03;5039221;28;20540;-79
2022/05/23 02:26:09;;;;;;;3.15;0.60;;;;;;;26.78;21.14;97913.22;5038435;28;20082;-79
2022/05/23 02:28:35;;;;;;;0.98;0.63;;;;;;;26.90;21.18;97907.53;5041957;28;20488;-79
2022/05/23 02:31:01;;;;;;;1.90;0.60;;;;;;;27.00;20.81;97914.81;5038022;28;20029;-79
2022/05/23 02:33:27;;;;;;;0.63;0.60;;;;;;;27.11;20.77;97912.41;5041246;28;20043;-77
2022/05/23 02:35:53;;;;;;;0.93;0.60;;;;;;;27.30;20.23;97907.69;5021281;28;20472;-77
2022/05/23 02:38:19;;;;;;;1.05;0.77;;;;;;;27.17;20.24;97907.72;5038449;28;20041;-76
2022/05/23 02:40:45;;;;;;;1.52;0.70;;;;;;;27.36;20.04;97903.78;5039625;28;20049;-77
2022/05/23 02:43:11;;;;;;;3.20;0.52;;;;;;;27.28;20.11;97902.47;5038581;28;20025;-77
2022/05/23 02:45:41;;;;;;;1.25;0.73;;;;;;;27.03;20.04;97902.63;5042987;28;20086;-77
2022/05/23 02:48:08;;;;;;;0.82;0.73;;;;;;;27.02;20.77;97909.53;4998847;28;20038;-77
2022/05/23 02:50:34;;;;;;;1.70;0.93;;;;;;;27.08;20.60;97902.03;5004704;28;20045;-77
2022/05/23 02:53:00;;;;;;;0.85;0.63;;;;;;;26.89;20.84;97899.53;5003255;28;20037;-77
2022/05/23 02:55:26;;;;;;;0.95;0.50;;;;;;;26.97;20.88;97898.03;5003234;28;20037;-77
2022/05/23 02:57:53;;;;;;;0.82;0.68;;;;;;;27.07;20.69;97900.44;5006521;28;20124;-77
2022/05/23 03:00:20;;;;;;;0.98;0.70;;;;;;;26.96;20.90;97896.44;5000653;28;20034;-77
2022/05/23 03:03:01;;;;;;;1.15;0.70;;;;;;;26.87;20.95;97894.34;4997038;28;20073;-77
2022/05/23 03:05:31;;;;;;;1.58;0.77;;;;;;;26.63;21.45;97898.81;5003071;28;20037;-77
2022/05/23 03:07:58;;;;;;;1.02;0.60;;;;;;;26.65;20.75;97896.34;5000425;28;20030;-77
2022/05/23 03:10:24;;;;;;;0.60;0.60;;;;;;;26.42;21.51;97896.75;4998507;28;20157;-77
2022/05/23 03:12:51;;;;;;;1.45;0.82;;;;;;;26.30;21.80;97891.94;4998865;28;20040;-77
2022/05/23 03:15:17;;;;;;;0.52;0.52;;;;;;;26.57;21.39;97897.81;4999628;28;20546;-77
2022/05/23 03:20:27;;;;;;;1.95;0.80;;;;;;;27.18;20.49;97895.22;5006718;28;20045;-77
2022/05/23 03:28:24;;;;;;;2.08;0.73;;;;;;;27.95;20.05;97901.91;5002131;28;20057;-77
2022/05/23 03:30:50;;;;;;;1.85;1.05;;;;;;;28.14;19.58;97902.78;5005580;28;20061;-77
2022/05/23 03:33:16;;;;;;;1.33;0.80;;;;;;;28.15;19.69;97905.16;5001392;28;20087;-77
2022/05/23 03:35:43;;;;;;;1.27;0.88;;;;;;;27.94;19.93;97909.59;5001578;28;20030;-77
2022/05/23 03:38:10;;;;;;;2.50;1.08;;;;;;;28.46;20.30;97910.72;5003435;28;20109;-77
2022/05/23 03:40:39;;;;;;;0.70;0.70;;;;;;;28.70;19.83;97920.19;5003189;28;20034;-77
2022/05/23 03:43:06;;;;;;;0.63;0.60;;;;;;;28.53;20.37;97916.84;5000540;28;20038;-77
2022/05/23 03:45:33;;;;;;;1.75;0.77;;;;;;;28.56;20.92;97912.31;5002905;28;20034;-77
2022/05/23 03:48:01;;;;;;;0.63;0.63;;;;;;;28.56;21.33;97918.75;5034775;28;20088;-77
2022/05/23 03:50:30;;;;;;;0.93;0.65;;;;;;;29.13;20.58;97917.06;5037090;28;20070;-76
2022/05/23 03:52:56;;;;;;;1.50;0.90;;;;;;;29.54;20.59;97923.31;5039838;28;20033;-76
2022/05/23 03:55:23;;;;;;;1.05;0.60;;;;;;;29.39;20.47;97923.97;5039932;28;20469;-77
2022/05/23 03:57:50;;;;;;;0.75;0.75;;;;;;;29.36;20.65;97922.09;5036826;28;20047;-77
2022/05/23 04:00:17;;;;;;;0.88;0.60;;;;;;;29.54;20.65;97917.66;5036909;28;20470;-76
2022/05/23 04:02:43;;;;;;;2.42;0.80;;;;;;;29.70;20.76;97917.28;5039524;28;20496;-77
2022/05/23 04:05:12;;;;;;;1.08;0.75;;;;;;;29.77;20.42;97911.31;5033731;28;20033;-76
2022/05/23 04:07:41;;;;;;;1.25;0.73;;;;;;;29.76;20.10;97916.19;5032727;28;20032;-77
2022/05/23 04:10:17;;;;;;;1.58;0.95;;;;;;;29.51;20.65;97912.94;5019444;28;20061;-77
2022/05/23 04:12:44;;;;;;;0.80;0.80;;;;;;;29.80;20.55;97911.13;5037509;28;20060;-77
2022/05/23 04:15:11;;;;;;;2.47;1.00;;;;;;;30.05;20.40;97912.78;5038830;28;20067;-77
2022/05/23 04:17:38;;;;;;;2.28;1.33;;;;;;;29.74;20.38;97909.41;5046695;28;20553;-77
2022/05/23 04:20:05;;;;;;;1.77;0.98;;;;;;;29.74;20.86;97915.88;5037676;28;20036;-78
2022/05/23 04:22:31;;;;;;;0.70;0.63;;;;;;;30.06;20.08;97917.16;5036580;28;20102;-77
2022/05/23 04:24:58;;;;;;;1.58;0.77;;;;;;;30.50;19.90;97921.06;5022931;28;20454;-78
2022/05/23 04:27:24;;;;;;;0.80;0.80;;;;;;;30.99;19.80;97928.31;5037946;28;20354;-78
2022/05/23 04:29:50;;;;;;;0.90;0.80;;;;;;;31.37;20.21;97933.94;5040054;28;20112;-78
2022/05/23 04:35:13;;;;;;;1.02;0.70;;;;;;;32.13;19.52;97918.81;5040733;28;20067;-78
2022/05/23 04:37:44;;;;;;;0.70;0.70;;;;;;;32.39;18.94;97918.94;5040700;28;20037;-79
2022/05/23 04:40:13;;;;;;;0.50;0.50;;;;;;;32.10;19.17;97916.94;5040830;28;20034;-79
2022/05/23 04:42:39;;;;;;;1.77;0.73;;;;;;;32.24;19.39;97916.13;5040240;28;20030;-78
2022/05/23 04:45:06;;;;;;;0.90;0.60;;;;;;;32.36;18.80;97920.69;5044635;28;20033;-78
2022/05/23 04:50:17;;;;;;;1.38;0.75;;;;;;;32.59;18.94;97921.81;5041860;28;20048;-78
2022/05/23 04:52:43;;;;;;;0.68;0.60;;;;;;;32.75;19.08;97918.41;5041097;28;20037;-78
2022/05/23 04:55:10;;;;;;;1.85;0.73;;;;;;;32.77;18.64;97920.78;5039669;28;20436;-78
2022/05/23 04:57:36;;;;;;;0.52;0.52;;;;;;;32.49;18.73;97921.16;5047615;28;20037;-78
2022/05/23 05:00:08;;;;;;;0.57;0.50;;;;;;;32.25;18.76;97911.22;5041823;28;20047;-77
2022/05/23 05:02:36;;;;;;;0.60;0.60;;;;;;;32.34;19.66;97911.09;5043380;28;20048;-78
2022/05/23 05:05:02;;;;;;;0.77;0.63;;;;;;;32.44;19.39;97912.53;5040067;28;20076;-76
2022/05/23 05:07:28;;;;;;;1.50;0.85;;;;;;;32.58;19.11;97917.41;5040865;28;20465;-77
2022/05/23 05:09:54;;;;;;;1.05;0.60;;;;;;;32.80;18.89;97914.06;5041601;28;20060;-77
2022/05/23 05:12:21;;;;;;;0.85;0.77;;;;;;;32.88;18.88;97912.38;5039923;28;20075;-77
2022/05/23 05:14:47;;;;;;;1.40;0.65;;;;;;;33.07;18.84;97913.66;5044430;28;20037;-77
2022/05/23 05:17:13;;;;;;;1.25;0.50;;;;;;;33.24;19.03;97912.56;5038302;28;20037;-78
2022/05/23 05:19:39;;;;;;;0.95;0.63;;;;;;;33.50;18.24;97915.41;5041185;28;20593;-78
2022/05/23 05:22:05;;;;;;;0.85;0.43;;;;;;;33.64;18.61;97903.16;5040695;28;20127;-78
2022/05/23 05:24:32;;;;;;;0.50;0.40;;;;;;;33.82;17.71;97908.47;5042427;28;20029;-76
2022/05/23 05:27:00;;;;;;;0.60;0.43;;;;;;;33.67;18.16;97915.59;5040345;28;20079;-78
2022/05/23 05:29:26;;;;;;;1.25;0.50;;;;;;;33.74;17.73;97918.78;5038917;28;20028;-78
2022/05/23 05:31:55;;;;;;;3.50;0.40;;;;;;;33.70;17.29;97915.38;5041117;28;20025;-78
2022/05/23 05:34:39;;;;;;;1.48;0.47;;;;;;;33.71;17.55;97928.34;5041164;28;20041;-78
2022/05/23 05:37:45;;;;;;;0.40;0.40;;;;;;;33.91;17.00;97919.69;5041896;28;20094;-76
2022/05/23 05:40:15;;;;;;;1.10;0.40;;;;;;;33.98;16.78;97924.94;5033604;28;20048;-78
2022/05/23 05:42:46;;;;;;;2.15;0.50;;;;;;;34.03;16.58;97923.44;5045712;28;20142;-77
2022/05/23 05:45:22;;;;;;;0.68;0.30;;;;;;;33.74;16.92;97923.69;5042521;28;20711;-77
2022/05/23 05:47:51;;;;;;;0.28;0.22;;;;;;;33.89;17.20;97922.28;5043341;28;20037;-77
2022/05/23 05:50:26;;;;;;;0.40;0.30;;;;;;;34.10;16.69;97925.81;5036106;28;20029;-77
2022/05/23 05:52:55;;;;;;;0.50;0.30;;;;;;;34.30;16.99;97924.94;5038075;28;20450;-77
2022/05/23 05:55:22;;;;;;;0.82;0.20;;;;;;;34.58;16.30;97926.72;5039755;28;20031;-77
2022/05/23 05:57:49;;;;;;;0.45;0.30;;;;;;;34.57;15.78;97925.16;5037955;28;20044;-77
2022/05/23 06:00:16;;;;;;;0.52;0.30;;;;;;;34.44;16.00;97926.84;5036249;28;20499;-77
2022/05/23 06:02:43;;;;;;;0.40;0.40;;;;;;;34.14;16.24;97932.09;5041632;28;20046;-77
2022/05/23 06:05:09;;;;;;;0.50;0.32;;;;;;;33.81;16.11;97928.94;5045558;28;20048;-77
2022/05/23 06:13:05;;;;;;;0.50;0.45;;;;;;;33.42;16.97;97932.16;5039312;28;20052;-76
2022/05/23 06:15:31;;;;;;;0.52;0.30;;;;;;;32.76;16.60;97934.19;5041290;28;20098;-76
2022/05/23 06:17:58;;;;;;;0.63;0.40;;;;;;;32.29;15.54;97934.53;5039801;28;20037;-76
2022/05/23 06:20:24;;;;;;;0.40;0.40;;;;;;;31.73;15.86;97942.13;5042570;28;20040;-77
2022/05/23 06:22:51;;;;;;;0.30;0.30;;;;;;;31.36;16.96;97944.53;5038545;28;20028;-76
2022/05/23 06:25:18;;;;;;;0.47;0.40;;;;;;;31.86;16.92;97942.59;5041655;28;20060;-76
2022/05/23 06:27:44;;;;;;;1.02;0.55;;;;;;;32.02;17.41;97944.19;5041383;28;20095;-76
2022/05/23 06:30:13;;;;;;;2.38;0.73;;;;;;;31.88;17.58;97936.44;5035667;28;20033;-76
2022/05/23 06:32:40;;;;;;;1.27;0.60;;;;;;;31.61;16.86;97940.34;5035639;28;20040;-76
2022/05/23 06:35:08;;;;;;;0.50;0.40;;;;;;;31.76;16.47;97948.88;5036998;28;20048;-77
2022/05/23 06:37:39;;;;;;;0.55;0.30;;;;;;;32.09;17.17;97944.56;5041535;28;20134;-77
2022/05/23 06:40:07;;;;;;;1.00;0.70;;;;;;;29.15;19.03;97956.94;5035606;28;20053;-77
2022/05/23 06:42:34;;;;;;;0.70;0.63;;;;;;;28.53;20.87;97955.59;5037186;28;20065;-77
2022/05/23 06:45:01;;;;;;;0.80;0.70;;;;;;;27.72;21.46;97945.56;5039420;28;20154;-76
2022/05/23 06:47:27;;;;;;;1.42;0.40;;;;;;;29.78;19.54;97944.81;5038133;28;20397;-75
2022/05/23 06:49:55;;;;;;;0.60;0.60;;;;;;;30.65;18.42;97950.25;5038927;28;20252;-77
2022/05/23 06:52:21;;;;;;;2.75;0.85;;;;;;;30.86;17.66;97947.59;5037729;28;20032;-74
2022/05/23 06:54:48;;;;;;;0.40;0.40;;;;;;;30.52;18.47;97961.06;5037157;28;20041;-76
2022/05/23 06:57:14;;;;;;;0.98;0.93;;;;;;;30.31;18.37;97966.94;5041502;28;20033;-75
2022/05/23 06:59:41;;;;;;;2.45;0.80;;;;;;;29.90;19.11;97952.31;5043577;28;20041;-75
2022/05/23 07:02:09;;;;;;;2.25;0.60;;;;;;;30.49;18.65;97958.38;5037642;28;20099;-76
2022/05/23 07:12:51;;;;;;;2.20;0.85;;;;;;;28.62;19.83;97959.28;5043070;28;20125;-76
2022/05/23 07:15:18;;;;;;;0.68;0.60;;;;;;;29.31;18.61;97950.25;5038742;28;20499;-76
2022/05/23 07:17:44;;;;;;;1.98;1.15;;;;;;;29.79;18.36;97940.72;5040965;28;20411;-77
2022/05/23 07:20:11;;;;;;;0.65;0.63;;;;;;;28.21;19.42;97945.66;5035476;28;20435;-76
2022/05/23 07:22:37;;;;;;;0.93;0.70;;;;;;;29.35;18.53;97948.03;5024950;28;20559;-75
2022/05/23 07:25:06;;;;;;;1.10;0.80;;;;;;;29.54;17.89;97932.59;5047125;28;20043;-78
2022/05/23 07:27:32;;;;;;;0.50;0.50;;;;;;;28.82;18.64;97947.53;5053218;28;20477;-75
2022/05/23 07:29:58;;;;;;;0.70;0.70;;;;;;;27.08;21.25;97949.16;5048683;28;20484;-78
2022/05/23 07:32:25;;;;;;;0.90;0.65;;;;;;;27.85;20.56;97949.06;5047097;28;20530;-76
2022/05/23 07:34:51;;;;;;;0.88;0.47;;;;;;;27.98;20.75;97938.44;5046799;28;20036;-76
2022/05/23 07:37:17;;;;;;;0.95;0.40;;;;;;;29.45;18.44;97941.09;5048722;28;20037;-76
2022/05/23 07:39:44;;;;;;;0.40;0.30;;;;;;;30.81;16.23;97925.59;5047965;28;20033;-76
2022/05/23 07:42:10;;;;;;;0.65;0.30;;;;;;;31.96;16.00;97929.91;5053162;28;20130;-76
2022/05/23 07:44:37;;;;;;;0.40;0.40;;;;;;;31.27;16.76;97921.88;5043354;28;20025;-78
2022/05/23 07:47:06;;;;;;;0.98;0.50;;;;;;;29.78;17.22;97921.41;5052861;28;20053;-77
2022/05/23 07:49:34;;;;;;;0.63;0.30;;;;;;;30.27;16.65;97923.84;5033990;28;20077;-76
2022/05/23 07:52:02;;;;;;;1.42;0.30;;;;;;;28.63;19.06;97926.16;5049621;28;20021;-76
2022/05/23 08:00:35;;;;;;;0.40;0.30;;;;;;;29.54;18.59;97909.16;5029854;28;20141;-76
2022/05/23 08:03:19;;;;;;;1.58;0.30;;;;;;;30.06;18.07;97917.16;5047879;28;20057;-77
2022/05/23 08:05:46;;;;;;;0.63;0.38;;;;;;;30.19;18.08;97919.78;5049357;28;20033;-77
2022/05/23 08:08:12;;;;;;;0.30;0.30;;;;;;;31.03;16.93;97904.16;5052284;28;20033;-77
2022/05/23 08:10:39;;;;;;;0.30;0.30;;;;;;;30.69;18.53;97905.50;5033112;28;20036;-77
2022/05/23 08:13:09;;;;;;;0.30;0.30;;;;;;;31.33;16.57;97899.31;5052232;28;20032;-77
2022/05/23 08:15:37;;;;;;;0.30;0.20;;;;;;;30.69;17.60;97896.22;5050812;28;20082;-77
2022/05/23 08:18:05;;;;;;;0.35;0.30;;;;;;;31.39;17.09;97895.28;5050544;28;20543;-77
2022/05/23 08:20:32;;;;;;;0.40;0.40;;;;;;;32.07;17.07;97881.78;5050455;28;20045;-76
2022/05/23 08:22:59;;;;;;;0.40;0.40;;;;;;;32.92;17.35;97893.03;5051594;28;20025;-77
2022/05/23 08:25:26;;;;;;;0.30;0.30;;;;;;;33.20;17.26;97886.41;5049305;28;20040;-76
2022/05/23 08:27:55;;;;;;;0.80;0.20;;;;;;;32.44;16.11;97879.19;5048902;28;20122;-77
2022/05/23 08:30:22;;;;;;;0.75;0.40;;;;;;;30.35;19.60;97883.38;5048907;28;20036;-76
2022/05/23 08:32:50;;;;;;;0.28;0.25;;;;;;;30.42;18.97;97885.84;5052893;28;20032;-77
2022/05/23 08:35:17;;;;;;;0.20;0.20;;;;;;;29.75;18.89;97879.84;5046984;28;20033;-76
2022/05/23 08:37:43;;;;;;;0.30;0.20;;;;;;;31.37;18.48;97883.66;5044516;28;20488;-78
2022/05/23 08:40:10;;;;;;;0.30;0.25;;;;;;;32.22;18.82;97873.22;5049243;28;20071;-77
2022/05/23 08:42:56;;;;;;;0.50;0.30;;;;;;;29.98;19.15;97871.44;5045084;28;20030;-78
2022/05/23 08:45:22;;;;;;;0.30;0.30;;;;;;;30.47;19.66;97864.56;5049311;28;20039;-77
2022/05/23 08:48:15;;;;;;;0.75;0.28;;;;;;;31.17;18.52;97868.56;5042688;28;20139;-78
2022/05/23 08:51:17;;;;;;;0.30;0.30;;;;;;;31.33;18.02;97866.03;5045314;28;20029;-78
2022/05/23 08:54:06;;;;;;;0.20;0.20;;;;;;;29.95;19.71;97869.56;5026100;28;20048;-78
2022/05/23 08:56:37;;;;;;;0.75;0.43;;;;;;;29.39;20.53;97870.22;5048519;28;20052;-78
2022/05/23 08:59:11;;;;;;;0.63;0.30;;;;;;;28.57;21.08;97883.56;5051407;28;20033;-78
2022/05/23 09:01:51;;;;;;;0.28;0.20;;;;;;;30.26;19.24;97869.25;5043037;28;20037;-78
2022/05/23 09:04:34;;;;;;;2.05;0.40;;;;;;;31.76;17.60;97864.50;5041250;28;20033;-77
2022/05/23 09:07:03;;;;;;;0.30;0.30;;;;;;;31.66;17.33;97860.19;5018607;28;20124;-78
2022/05/23 09:09:32;;;;;;;0.47;0.30;;;;;;;32.63;16.74;97860.63;5049353;28;20037;-79
2022/05/23 09:12:10;;;;;;;0.98;0.50;;;;;;;29.70;19.18;97866.34;5054729;28;20065;-77
2022/05/23 09:14:38;;;;;;;0.28;0.28;;;;;;;29.59;19.88;97866.88;5054220;28;20036;-77
2022/05/23 09:17:14;;;;;;;0.30;0.30;;;;;;;29.64;19.73;97860.53;5053075;28;20490;-77
2022/05/23 09:19:55;;;;;;;0.80;0.40;;;;;;;30.12;19.03;97855.00;5054569;28;20052;-78
2022/05/23 09:22:31;;;;;;;0.30;0.30;;;;;;;30.96;18.56;97853.50;5036286;28;20039;-78
2022/05/23 09:25:03;;;;;;;0.20;0.20;;;;;;;32.38;17.08;97861.28;5056151;28;20384;-78
2022/05/23 09:27:51;;;;;;;2.40;0.50;;;;;;;32.19;18.39;97867.72;5043215;28;20029;-77
2022/05/23 09:30:23;;;;;;;0.68;0.40;;;;;;;29.97;21.42;97866.25;5054172;28;20108;-78
2022/05/23 09:33:02;;;;;;;0.95;0.40;;;;;;;30.78;19.71;97870.66;5037831;28;20518;-78
2022/05/23 09:35:43;;;;;;;0.20;0.20;;;;;;;30.96;18.72;97869.72;5052469;28;20425;-78
2022/05/23 09:38:20;;;;;;;0.40;0.22;;;;;;;32.48;18.89;97861.94;5050708;28;20043;-78
2022/05/23 09:40:47;;;;;;;0.20;0.20;;;;;;;33.54;17.49;97855.44;5054115;28;20036;-78
2022/05/23 09:49:24;;;;;;;0.20;0.17;;;;;;;31.93;16.90;97856.22;5047204;28;20608;-78
2022/05/23 09:52:02;;;;;;;1.35;0.30;;;;;;;32.61;17.29;97856.69;5055015;28;20552;-77
2022/05/23 09:54:28;;;;;;;0.20;0.20;;;;;;;33.35;16.77;97846.44;5050645;28;20040;-78
2022/05/23 09:56:57;;;;;;;0.30;0.10;;;;;;;34.34;15.60;97845.66;5055341;28;20108;-77
2022/05/23 09:59:23;;;;;;;0.40;0.25;;;;;;;34.62;15.87;97838.03;5052841;28;20029;-78
2022/05/23 10:01:49;;;;;;;2.38;0.20;;;;;;;34.81;16.42;97839.16;5052063;28;20033;-78
2022/05/23 10:04:25;;;;;;;0.25;0.20;;;;;;;34.23;16.11;97837.06;5046284;28;20029;-78
2022/05/23 10:06:51;;;;;;;0.20;0.20;;;;;;;33.93;17.27;97836.59;5050876;28;20044;-77
2022/05/23 10:09:30;;;;;;;0.20;0.20;;;;;;;33.27;15.69;97843.25;5054451;28;20037;-78
2022/05/23 10:12:04;;;;;;;0.55;0.20;;;;;;;33.50;16.45;97830.00;5053554;28;20036;-78
2022/05/23 10:14:47;;;;;;;0.20;0.20;;;;;;;32.65;17.39;97835.31;5030204;28;20040;-79
2022/05/23 10:17:28;;;;;;;0.95;0.40;;;;;;;30.97;18.23;97835.19;5053367;28;20033;-78
2022/05/23 10:20:17;;;;;;;0.30;0.30;;;;;;;30.23;19.23;97832.59;5052940;28;20045;-78
2022/05/23 10:23:15;;;;;;;0.60;0.40;;;;;;;30.20;18.72;97831.50;5053493;28;20036;-78
2022/05/23 10:26:00;;;;;;;0.30;0.30;;;;;;;31.45;19.27;97832.22;5033209;28;20459;-78
2022/05/23 10:28:56;;;;;;;0.22;0.20;;;;;;;32.55;17.82;97836.75;5054620;28;20033;-78
2022/05/23 10:31:52;;;;;;;1.38;0.30;;;;;;;33.23;16.80;97839.88;5044545;28;20131;-78
2022/05/23 10:34:27;;;;;;;0.35;0.32;;;;;;;33.34;17.53;97836.34;5048063;28;20076;-78
2022/05/23 10:36:54;;;;;;;0.60;0.30;;;;;;;34.11;16.13;97829.72;5048739;28;20090;-78
2022/05/23 10:42:24;;;;;;;0.68;0.30;;;;;;;33.34;16.22;97842.81;5037566;28;20075;-77
2022/05/23 10:45:15;;;;;;;1.25;0.40;;;;;;;33.72;16.79;97835.91;5044308;28;20068;-78
2022/05/23 10:47:44;;;;;;;1.52;0.30;;;;;;;34.60;16.37;97834.94;5051557;28;20041;-77
2022/05/23 10:50:18;;;;;;;0.38;0.28;;;;;;;35.07;15.34;97827.59;5050823;28;20037;-77
2022/05/23 10:52:59;;;;;;;1.20;0.30;;;;;;;34.70;15.89;97825.63;5052243;28;20025;-78
2022/05/23 10:55:33;;;;;;;0.30;0.30;;;;;;;34.69;15.67;97826.94;5052674;28;20043;-77
2022/05/23 10:58:10;;;;;;;0.68;0.28;;;;;;;34.01;15.58;97829.09;5053264;28;20057;-77
2022/05/23 11:00:58;;;;;;;0.20;0.20;;;;;;;34.13;16.01;97822.22;5048212;28;20054;-77
2022/05/23 11:03:56;;;;;;;0.68;0.25;;;;;;;33.63;16.07;97826.78;5044321;28;20064;-77
2022/05/23 11:06:37;;;;;;;0.63;0.20;;;;;;;34.02;16.60;97822.13;5044739;28;20064;-78
2022/05/23 11:09:18;;;;;;;0.52;0.20;;;;;;;34.76;16.18;97822.81;5043501;28;20124;-78
2022/05/23 11:11:58;;;;;;;4.57;0.20;;;;;;;35.35;15.44;97823.47;5044953;28;20037;-78
2022/05/23 11:14:47;;;;;;;0.20;0.20;;;;;;;35.60;15.32;97818.03;5043425;28;20037;-78
2022/05/23 11:17:50;;;;;;;0.60;0.30;;;;;;;34.86;14.54;97823.34;5043467;28;20037;-76
2022/05/23 11:20:32;;;;;;;2.92;0.20;;;;;;;33.98;15.95;97815.91;5010241;28;20488;-76
2022/05/23 11:23:21;;;;;;;0.52;0.20;;;;;;;33.94;16.23;97813.28;5044767;28;20391;-76
2022/05/23 11:25:53;;;;;;;2.38;0.30;;;;;;;32.84;17.23;97813.03;5047304;28;20119;-76
2022/05/23 11:34:28;;;;;;;1.15;0.30;;;;;;;32.78;17.18;97812.19;5044751;28;20098;-76
2022/05/23 11:39:49;;;;;;;0.60;0.20;;;;;;;34.13;17.15;97810.03;5047136;28;20035;-76
2022/05/23 11:42:35;;;;;;;0.20;0.20;;;;;;;35.01;15.52;97799.00;5043884;28;20051;-76
2022/05/23 11:45:57;;;;;;;0.20;0.10;;;;;;;35.64;14.86;97805.06;5046585;28;20540;-76
2022/05/23 11:47:59;;;;;;;0.47;0.40;;;;;;;34.91;15.64;97794.06;5046071;28;20052;-76
2022/05/23 11:50:32;;;;;;;0.30;0.20;;;;;;;33.32;16.02;97794.16;5042593;28;20044;-78
2022/05/23 11:53:20;;;;;;;0.98;0.20;;;;;;;32.73;17.96;97799.47;5043921;28;20076;-75
2022/05/23 11:55:53;;;;;;;0.20;0.10;;;;;;;31.67;17.77;97799.28;5044324;28;20029;-78
2022/05/23 11:58:25;;;;;;;0.40;0.40;;;;;;;32.19;17.89;97794.66;5043927;28;20094;-78
2022/05/23 12:01:10;;;;;;;0.30;0.30;;;;;;;33.57;16.55;97786.06;5045531;28;20413;-79
2022/05/23 12:04:02;;;;;;;0.20;0.20;;;;;;;33.43;16.46;97788.53;5042614;28;20033;-78
2022/05/23 12:06:28;;;;;;;0.30;0.30;;;;;;;33.16;17.40;97794.00;5034519;28;20132;-78
2022/05/23 12:09:12;;;;;;;0.45;0.30;;;;;;;33.19;17.34;97779.53;5045118;28;20131;-79
2022/05/23 12:11:42;;;;;;;0.20;0.20;;;;;;;33.13;17.70;97787.25;5043861;28;20036;-79
2022/05/23 12:14:28;;;;;;;0.28;0.22;;;;;;;34.17;16.78;97779.25;5046656;28;20026;-76
2022/05/23 12:16:57;;;;;;;0.10;0.10;;;;;;;34.55;16.24;97785.13;5027361;28;20479;-78
2022/05/23 12:19:38;;;;;;;0.17;0.17;;;;;;;33.92;16.91;97773.13;5045234;28;20428;-77
2022/05/23 12:22:19;;;;;;;1.45;0.30;;;;;;;32.50;17.55;97774.91;5046504;28;20447;-76
2022/05/23 12:25:19;;;;;;;0.25;0.20;;;;;;;31.93;17.62;97768.94;5039592;28;20033;-77
2022/05/23 12:27:45;;;;;;;0.40;0.40;;;;;;;31.31;17.27;97774.19;5040784;28;20040;-77
2022/05/23 12:30:17;;;;;;;0.30;0.30;;;;;;;31.85;17.78;97765.00;5048975;28;20039;-76
2022/05/23 12:32:52;;;;;;;0.20;0.20;;;;;;;33.00;16.19;97758.38;5047051;28;20040;-76
2022/05/23 12:35:22;;;;;;;0.82;0.32;;;;;;;31.38;16.63;97751.06;5036897;28;20029;-76
2022/05/23 12:37:57;;;;;;;;;;;;;;;30.94;17.49;97748.28;5045258;28;20029;-76
2022/05/23 12:40:45;;;;;;;0.50;0.30;;;;;;;30.09;17.94;97752.78;5046643;28;20006;-77
2022/05/23 12:43:36;;;;;;;0.57;0.30;;;;;;;32.54;16.83;97738.53;5038774;28;20036;-77
2022/05/23 12:46:23;;;;;;;0.40;0.40;;;;;;;31.75;17.12;97735.16;5045120;28;20044;-78
2022/05/23 12:49:03;;;;;;;0.57;0.30;;;;;;;30.14;18.18;97737.16;5037311;28;20080;-77
2022/05/23 12:52:00;;;;;;;1.15;0.30;;;;;;;30.65;17.30;97722.72;5051406;28;20176;-78
2022/05/23 12:54:43;;;;;;;2.45;0.40;;;;;;;31.31;18.45;97721.06;5037196;28;20052;-78